Randolph, Tennessee
Current Conditions -  °F | °C
As of 6:50 AM on Wednesday 26 Nov 2014 (Local Time) from KNQA Reporting Station
Few Clouds Few Clouds  
Wind Chill: 19°   Ceiling: Unl
Heat Index: 25°   Visibility: 10mi
Dew Point: 25°   Wind: 5mph
Humidity: 100%   Direction: 100°E
Pressure: 30.13"   Gusts: NA
Location:  35.5541°N, 89.8241°W
Report Text: KNQA 261250Z 10004KT 10SM FEW250 M04/M04 A3013
Loading
Personal Weather Stations






























Interactive Weather Map New forecast layout! Learn more

10-Day Weather Forecast

Advertisements
Track Severe Weather on mobile